sensor_id;sensor_type;location;lat;lon;timestamp;pressure;altitude;pressure_sealevel;temperature;humidity
64019;BME280;66942;52.138;5.216;2023-04-03T00:03:11;103116.00000000001;;;8.65;50.81
64019;BME280;66942;52.138;5.216;2023-04-03T00:04:47;103121.0;;;8.57;49.96
64019;BME280;66942;52.138;5.216;2023-04-03T00:06:25;103117.0;;;8.61;49.97
64019;BME280;66942;52.138;5.216;2023-04-03T00:09:39;103123.0;;;8.56;49.89
64019;BME280;66942;52.138;5.216;2023-04-03T00:11:15;103125.0;;;8.26;50.66
64019;BME280;66942;52.138;5.216;2023-04-03T00:12:51;103130.0;;;8.48;50.35
64019;BME280;66942;52.138;5.216;2023-04-03T00:14:29;103128.0;;;8.6;50.42
64019;BME280;66942;52.138;5.216;2023-04-03T00:17:43;103125.0;;;8.68;49.59
64019;BME280;66942;52.138;5.216;2023-04-03T00:19:19;103125.0;;;8.44;50.25
64019;BME280;66942;52.138;5.216;2023-04-03T00:20:57;103130.0;;;8.4;50.21
64019;BME280;66942;52.138;5.216;2023-04-03T00:24:10;103126.0;;;8.49;50.06
64019;BME280;66942;52.138;5.216;2023-04-03T00:25:46;103128.0;;;8.43;50.05
64019;BME280;66942;52.138;5.216;2023-04-03T00:27:23;103129.0;;;8.26;50.58
64019;BME280;66942;52.138;5.216;2023-04-03T00:28:59;103131.0;;;8.1;51.12
64019;BME280;66942;52.138;5.216;2023-04-03T00:32:12;103134.99999999999;;;8.09;51.09
64019;BME280;66942;52.138;5.216;2023-04-03T00:33:49;103131.0;;;7.9;51.01
64019;BME280;66942;52.138;5.216;2023-04-03T00:35:27;103129.0;;;8.1;50.93
64019;BME280;66942;52.138;5.216;2023-04-03T00:38:41;103132.0;;;8.01;51.28
64019;BME280;66942;52.138;5.216;2023-04-03T00:40:17;103133.99999999999;;;8.16;50.76
64019;BME280;66942;52.138;5.216;2023-04-03T00:41:54;103134.99999999999;;;8.23;50.53
64019;BME280;66942;52.138;5.216;2023-04-03T00:45:30;103139.00000000001;;;8.09;51.09
64019;BME280;66942;52.138;5.216;2023-04-03T00:47:09;103134.99999999999;;;8.07;50.8
64019;BME280;66942;52.138;5.216;2023-04-03T00:48:47;103142.0;;;7.87;52.19
64019;BME280;66942;52.138;5.216;2023-04-03T00:50:25;103142.0;;;7.87;51.7
64019;BME280;66942;52.138;5.216;2023-04-03T00:52:03;103139.00000000001;;;7.74;52.07
64019;BME280;66942;52.138;5.216;2023-04-03T00:55:25;103138.00000000001;;;7.67;52.21
64019;BME280;66942;52.138;5.216;2023-04-03T00:57:01;103144.0;;;7.73;52.51
64019;BME280;66942;52.138;5.216;2023-04-03T00:58:45;103148.0;;;7.52;53.2
64019;BME280;66942;52.138;5.216;2023-04-03T01:00:25;103148.0;;;7.51;52.81
64019;BME280;66942;52.138;5.216;2023-04-03T01:03:38;103144.0;;;7.69;52.89
64019;BME280;66942;52.138;5.216;2023-04-03T01:05:16;103144.0;;;7.63;53.19
64019;BME280;66942;52.138;5.216;2023-04-03T01:06:53;103145.0;;;7.42;53.61
64019;BME280;66942;52.138;5.216;2023-04-03T01:10:10;103154.0;;;7.17;54.23
64019;BME280;66942;52.138;5.216;2023-04-03T01:11:49;103153.0;;;7.23;53.74
64019;BME280;66942;52.138;5.216;2023-04-03T01:13:28;103154.0;;;7.13;54.29
64019;BME280;66942;52.138;5.216;2023-04-03T01:15:08;103158.99999999999;;;7.31;53.26
64019;BME280;66942;52.138;5.216;2023-04-03T01:18:29;103154.0;;;7.31;53.54
64019;BME280;66942;52.138;5.216;2023-04-03T01:24:03;103164.00000000001;;;7.01;54.64
64019;BME280;66942;52.138;5.216;2023-04-03T01:25:46;103165.00000000001;;;6.87;54.55
64019;BME280;66942;52.138;5.216;2023-04-03T01:27:24;103159.99999999999;;;6.86;55.19
64019;BME280;66942;52.138;5.216;2023-04-03T01:30:43;103155.0;;;6.82;54.94
64019;BME280;66942;52.138;5.216;2023-04-03T01:32:22;103154.0;;;6.76;55.1
64019;BME280;66942;52.138;5.216;2023-04-03T01:34:00;103153.0;;;6.71;55.44
64019;BME280;66942;52.138;5.216;2023-04-03T01:37:14;103152.0;;;6.69;55.43
64019;BME280;66942;52.138;5.216;2023-04-03T01:38:51;103153.0;;;6.69;56.16
64019;BME280;66942;52.138;5.216;2023-04-03T01:40:27;103157.0;;;6.77;55.63
64019;BME280;66942;52.138;5.216;2023-04-03T01:42:05;103154.0;;;6.99;55.06
64019;BME280;66942;52.138;5.216;2023-04-03T01:45:18;103150.0;;;6.78;55.89
64019;BME280;66942;52.138;5.216;2023-04-03T01:46:55;103156.0;;;6.56;56.19
64019;BME280;66942;52.138;5.216;2023-04-03T01:48:32;103155.0;;;6.54;56.24
64019;BME280;66942;52.138;5.216;2023-04-03T01:51:45;103150.0;;;6.37;56.69
64019;BME280;66942;52.138;5.216;2023-04-03T01:53:22;103153.0;;;6.36;56.97
64019;BME280;66942;52.138;5.216;2023-04-03T01:54:58;103153.0;;;6.37;56.59
64019;BME280;66942;52.138;5.216;2023-04-03T01:56:34;103154.0;;;6.26;56.89
64019;BME280;66942;52.138;5.216;2023-04-03T01:59:46;103157.0;;;6.2;57.25
64019;BME280;66942;52.138;5.216;2023-04-03T02:01:24;103163.00000000001;;;6.36;56.75
64019;BME280;66942;52.138;5.216;2023-04-03T02:03:01;103158.0;;;6.3;56.64
64019;BME280;66942;52.138;5.216;2023-04-03T02:06:15;103158.99999999999;;;6.35;56.59
64019;BME280;66942;52.138;5.216;2023-04-03T02:07:51;103161.99999999999;;;6.3;56.91
64019;BME280;66942;52.138;5.216;2023-04-03T02:09:27;103164.00000000001;;;6.45;56.74
64019;BME280;66942;52.138;5.216;2023-04-03T02:12:40;103165.00000000001;;;6.5;56.3
64019;BME280;66942;52.138;5.216;2023-04-03T02:14:16;103171.0;;;6.76;55.76
64019;BME280;66942;52.138;5.216;2023-04-03T02:15:52;103171.0;;;6.38;56.73
64019;BME280;66942;52.138;5.216;2023-04-03T02:19:05;103171.0;;;6.29;57.22
64019;BME280;66942;52.138;5.216;2023-04-03T02:20:41;103170.0;;;6.34;57.09
64019;BME280;66942;52.138;5.216;2023-04-03T02:22:17;103170.0;;;6.28;57.18
64019;BME280;66942;52.138;5.216;2023-04-03T02:23:53;103170.0;;;6.26;57.23
64019;BME280;66942;52.138;5.216;2023-04-03T02:27:08;103168.0;;;6.13;57.66
64019;BME280;66942;52.138;5.216;2023-04-03T02:28:44;103166.00000000001;;;6.13;57.4
64019;BME280;66942;52.138;5.216;2023-04-03T02:30:20;103168.0;;;6.15;57.69
64019;BME280;66942;52.138;5.216;2023-04-03T02:33:33;103166.00000000001;;;6.16;57.46
64019;BME280;66942;52.138;5.216;2023-04-03T02:35:10;103169.0;;;6.7;55.96
64019;BME280;66942;52.138;5.216;2023-04-03T02:36:47;103167.0;;;6.44;56.65
64019;BME280;66942;52.138;5.216;2023-04-03T02:40:00;103166.00000000001;;;6.28;57.43
64019;BME280;66942;52.138;5.216;2023-04-03T02:41:37;103173.0;;;6.57;56.29
64019;BME280;66942;52.138;5.216;2023-04-03T02:43:13;103170.0;;;6.46;56.7
64019;BME280;66942;52.138;5.216;2023-04-03T02:44:49;103176.0;;;6.86;55.37
64019;BME280;66942;52.138;5.216;2023-04-03T02:48:01;103188.00000000001;;;6.67;55.78
64019;BME280;66942;52.138;5.216;2023-04-03T02:49:37;103183.99999999999;;;6.62;55.98
64019;BME280;66942;52.138;5.216;2023-04-03T02:51:14;103181.0;;;6.63;55.93
64019;BME280;66942;52.138;5.216;2023-04-03T02:54:26;103184.99999999999;;;6.65;55.73
64019;BME280;66942;52.138;5.216;2023-04-03T02:56:02;103180.0;;;6.22;56.96
64019;BME280;66942;52.138;5.216;2023-04-03T02:57:38;103182.0;;;6.29;56.89
64019;BME280;66942;52.138;5.216;2023-04-03T03:00:52;103184.99999999999;;;6.39;56.57
64019;BME280;66942;52.138;5.216;2023-04-03T03:02:28;103189.00000000001;;;6.54;56.15
64019;BME280;66942;52.138;5.216;2023-04-03T03:04:04;103192.0;;;6.45;56.41
64019;BME280;66942;52.138;5.216;2023-04-03T03:05:40;103194.0;;;6.61;55.87
64019;BME280;66942;52.138;5.216;2023-04-03T03:08:53;103198.0;;;6.67;55.73
64019;BME280;66942;52.138;5.216;2023-04-03T03:10:29;103194.0;;;6.53;56.1
64019;BME280;66942;52.138;5.216;2023-04-03T03:12:05;103197.0;;;6.76;55.46
64019;BME280;66942;52.138;5.216;2023-04-03T03:15:18;103198.0;;;6.65;55.73
64019;BME280;66942;52.138;5.216;2023-04-03T03:16:54;103197.0;;;6.77;55.31
64019;BME280;66942;52.138;5.216;2023-04-03T03:18:30;103203.0;;;6.75;55.27
64019;BME280;66942;52.138;5.216;2023-04-03T03:21:43;103205.0;;;6.81;55.04
64019;BME280;66942;52.138;5.216;2023-04-03T03:23:21;103206.0;;;6.7;55.27
64019;BME280;66942;52.138;5.216;2023-04-03T03:25:00;103205.0;;;6.58;55.61
64019;BME280;66942;52.138;5.216;2023-04-03T03:26:37;103208.0;;;6.77;55.13
64019;BME280;66942;52.138;5.216;2023-04-03T03:29:49;103205.0;;;6.57;55.66
64019;BME280;66942;52.138;5.216;2023-04-03T03:31:26;103208.0;;;6.46;56.07
64019;BME280;66942;52.138;5.216;2023-04-03T03:33:02;103203.0;;;6.25;56.57
64019;BME280;66942;52.138;5.216;2023-04-03T03:36:15;103204.0;;;6.09;56.99
64019;BME280;66942;52.138;5.216;2023-04-03T03:37:51;103208.0;;;6.03;57.02
64019;BME280;66942;52.138;5.216;2023-04-03T03:39:28;103216.00000000001;;;6.01;57.38
64019;BME280;66942;52.138;5.216;2023-04-03T03:42:40;103215.00000000001;;;6.06;57.15
64019;BME280;66942;52.138;5.216;2023-04-03T03:44:16;103215.00000000001;;;5.97;57.33
64019;BME280;66942;52.138;5.216;2023-04-03T03:45:53;103211.99999999999;;;5.88;57.74
64019;BME280;66942;52.138;5.216;2023-04-03T03:47:30;103214.00000000001;;;5.65;58.61
64019;BME280;66942;52.138;5.216;2023-04-03T03:50:42;103208.0;;;5.8;58.06
64019;BME280;66942;52.138;5.216;2023-04-03T03:52:18;103214.00000000001;;;6.14;57.03
64019;BME280;66942;52.138;5.216;2023-04-03T03:53:54;103213.00000000001;;;5.93;57.7
64019;BME280;66942;52.138;5.216;2023-04-03T03:57:08;103217.0;;;5.99;57.56
64019;BME280;66942;52.138;5.216;2023-04-03T03:58:44;103215.00000000001;;;6.0;57.5
64019;BME280;66942;52.138;5.216;2023-04-03T04:00:20;103214.00000000001;;;5.8;58.1
64019;BME280;66942;52.138;5.216;2023-04-03T04:03:33;103217.0;;;6.06;57.17
64019;BME280;66942;52.138;5.216;2023-04-03T04:05:09;103217.0;;;6.17;57.02
64019;BME280;66942;52.138;5.216;2023-04-03T04:06:45;103215.00000000001;;;6.45;56.11
64019;BME280;66942;52.138;5.216;2023-04-03T04:08:21;103222.0;;;6.3;56.48
64019;BME280;66942;52.138;5.216;2023-04-03T04:11:34;103215.00000000001;;;6.16;56.89
64019;BME280;66942;52.138;5.216;2023-04-03T04:13:10;103217.0;;;5.91;57.74
64019;BME280;66942;52.138;5.216;2023-04-03T04:14:46;103218.0;;;6.02;57.54
64019;BME280;66942;52.138;5.216;2023-04-03T04:17:59;103222.0;;;6.13;57.04
64019;BME280;66942;52.138;5.216;2023-04-03T04:19:35;103230.0;;;6.1;57.05
64019;BME280;66942;52.138;5.216;2023-04-03T04:21:11;103229.0;;;6.23;56.79
64019;BME280;66942;52.138;5.216;2023-04-03T04:24:23;103229.0;;;6.32;56.42
64019;BME280;66942;52.138;5.216;2023-04-03T04:26:00;103231.0;;;6.08;57.15
64019;BME280;66942;52.138;5.216;2023-04-03T04:27:37;103229.0;;;5.99;57.29
64019;BME280;66942;52.138;5.216;2023-04-03T04:30:49;103227.0;;;5.95;57.46
64019;BME280;66942;52.138;5.216;2023-04-03T04:32:26;103231.0;;;5.9;57.49
64019;BME280;66942;52.138;5.216;2023-04-03T04:34:02;103231.0;;;5.98;57.36
64019;BME280;66942;52.138;5.216;2023-04-03T04:35:38;103233.99999999999;;;5.97;57.25
64019;BME280;66942;52.138;5.216;2023-04-03T04:38:50;103234.99999999999;;;6.04;57.02
64019;BME280;66942;52.138;5.216;2023-04-03T04:40:28;103233.0;;;5.87;57.46
64019;BME280;66942;52.138;5.216;2023-04-03T04:42:04;103234.99999999999;;;5.63;58.37
64019;BME280;66942;52.138;5.216;2023-04-03T04:45:16;103234.99999999999;;;5.54;58.83
64019;BME280;66942;52.138;5.216;2023-04-03T04:46:52;103236.99999999999;;;5.59;58.61
64019;BME280;66942;52.138;5.216;2023-04-03T04:48:28;103236.99999999999;;;5.72;58.25
64019;BME280;66942;52.138;5.216;2023-04-03T04:51:42;103239.00000000001;;;5.79;57.96
64019;BME280;66942;52.138;5.216;2023-04-03T04:53:18;103242.0;;;5.64;58.49
64019;BME280;66942;52.138;5.216;2023-04-03T04:54:54;103246.0;;;5.81;57.91
64019;BME280;66942;52.138;5.216;2023-04-03T04:56:31;103242.0;;;5.51;58.84
64019;BME280;66942;52.138;5.216;2023-04-03T04:59:43;103247.0;;;5.55;58.75
64019;BME280;66942;52.138;5.216;2023-04-03T05:01:19;103244.0;;;5.58;58.7
64019;BME280;66942;52.138;5.216;2023-04-03T05:02:55;103241.00000000001;;;5.61;58.5
64019;BME280;66942;52.138;5.216;2023-04-03T05:07:44;103241.00000000001;;;5.79;57.97
64019;BME280;66942;52.138;5.216;2023-04-03T05:09:20;103238.00000000001;;;5.64;58.45
64019;BME280;66942;52.138;5.216;2023-04-03T05:12:32;103243.0;;;5.58;58.58
64019;BME280;66942;52.138;5.216;2023-04-03T05:14:09;103239.00000000001;;;5.84;57.88
64019;BME280;66942;52.138;5.216;2023-04-03T05:15:45;103242.0;;;5.8;57.91
64019;BME280;66942;52.138;5.216;2023-04-03T05:18:58;103250.0;;;5.68;58.35
64019;BME280;66942;52.138;5.216;2023-04-03T05:20:35;103251.0;;;5.93;57.74
64019;BME280;66942;52.138;5.216;2023-04-03T05:22:11;103255.0;;;6.16;57.03
64019;BME280;66942;52.138;5.216;2023-04-03T05:23:47;103268.0;;;5.88;57.86
64019;BME280;66942;52.138;5.216;2023-04-03T05:26:59;103266.00000000001;;;5.93;57.78
64019;BME280;66942;52.138;5.216;2023-04-03T05:28:35;103271.0;;;5.76;58.32
64019;BME280;66942;52.138;5.216;2023-04-03T05:30:12;103270.0;;;5.89;57.93
64019;BME280;66942;52.138;5.216;2023-04-03T05:33:27;103270.0;;;5.82;58.28
64019;BME280;66942;52.138;5.216;2023-04-03T05:35:03;103272.0;;;5.72;58.51
64019;BME280;66942;52.138;5.216;2023-04-03T05:36:39;103275.0;;;5.52;59.39
64019;BME280;66942;52.138;5.216;2023-04-03T05:39:52;103272.0;;;5.46;59.62
64019;BME280;66942;52.138;5.216;2023-04-03T05:41:28;103274.0;;;5.24;60.15
64019;BME280;66942;52.138;5.216;2023-04-03T05:43:04;103279.0;;;5.29;60.3
64019;BME280;66942;52.138;5.216;2023-04-03T05:44:41;103277.0;;;5.72;59.03
64019;BME280;66942;52.138;5.216;2023-04-03T05:47:55;103278.0;;;5.69;59.14
64019;BME280;66942;52.138;5.216;2023-04-03T05:49:31;103279.0;;;5.58;59.48
64019;BME280;66942;52.138;5.216;2023-04-03T05:51:14;103281.0;;;5.74;59.1
64019;BME280;66942;52.138;5.216;2023-04-03T05:54:31;103281.0;;;5.9;58.48
64019;BME280;66942;52.138;5.216;2023-04-03T05:56:07;103284.99999999999;;;6.15;57.77
64019;BME280;66942;52.138;5.216;2023-04-03T05:57:43;103284.99999999999;;;6.25;57.63
64019;BME280;66942;52.138;5.216;2023-04-03T05:59:20;103288.00000000001;;;6.28;57.53
64019;BME280;66942;52.138;5.216;2023-04-03T06:02:33;103289.00000000001;;;6.26;57.62
64019;BME280;66942;52.138;5.216;2023-04-03T06:04:10;103290.00000000001;;;5.83;59.2
64019;BME280;66942;52.138;5.216;2023-04-03T06:05:46;103282.0;;;5.93;59.03
64019;BME280;66942;52.138;5.216;2023-04-03T06:09:00;103281.0;;;6.24;58.25
64019;BME280;66942;52.138;5.216;2023-04-03T06:10:37;103282.0;;;6.24;58.31
64019;BME280;66942;52.138;5.216;2023-04-03T06:12:13;103281.0;;;6.27;58.35
64019;BME280;66942;52.138;5.216;2023-04-03T06:15:26;103283.99999999999;;;6.17;58.85
64019;BME280;66942;52.138;5.216;2023-04-03T06:17:02;103286.99999999999;;;6.37;58.54
64019;BME280;66942;52.138;5.216;2023-04-03T06:18:39;103286.99999999999;;;6.32;58.84
64019;BME280;66942;52.138;5.216;2023-04-03T06:25:13;103292.0;;;6.68;58.1
64019;BME280;66942;52.138;5.216;2023-04-03T06:26:50;103292.0;;;6.69;58.1
64019;BME280;66942;52.138;5.216;2023-04-03T06:30:02;103296.0;;;6.45;58.45
64019;BME280;66942;52.138;5.216;2023-04-03T06:31:38;103300.0;;;7.13;57.26
64019;BME280;66942;52.138;5.216;2023-04-03T06:33:14;103300.0;;;7.19;56.99
64019;BME280;66942;52.138;5.216;2023-04-03T06:34:50;103301.0;;;7.34;56.38
64019;BME280;66942;52.138;5.216;2023-04-03T06:38:02;103304.0;;;7.28;55.37
64019;BME280;66942;52.138;5.216;2023-04-03T06:39:38;103305.0;;;7.46;55.18
64019;BME280;66942;52.138;5.216;2023-04-03T06:41:15;103308.0;;;7.64;54.75
64019;BME280;66942;52.138;5.216;2023-04-03T06:44:28;103309.99999999999;;;7.7;54.23
64019;BME280;66942;52.138;5.216;2023-04-03T06:46:04;103311.99999999999;;;7.66;54.44
64019;BME280;66942;52.138;5.216;2023-04-03T06:47:40;103311.99999999999;;;7.56;53.59
64019;BME280;66942;52.138;5.216;2023-04-03T06:50:53;103309.99999999999;;;7.33;53.75
64019;BME280;66942;52.138;5.216;2023-04-03T06:52:29;103313.00000000001;;;7.75;53.64
64019;BME280;66942;52.138;5.216;2023-04-03T06:54:06;103311.99999999999;;;7.16;53.44
64019;BME280;66942;52.138;5.216;2023-04-03T06:57:18;103319.0;;;8.0;52.38
64019;BME280;66942;52.138;5.216;2023-04-03T06:58:55;103325.0;;;8.05;51.58
64019;BME280;66942;52.138;5.216;2023-04-03T07:00:31;103325.0;;;8.5;51.0
64019;BME280;66942;52.138;5.216;2023-04-03T07:02:09;103325.0;;;8.67;50.48
64019;BME280;66942;52.138;5.216;2023-04-03T07:05:24;103326.0;;;9.17;49.75
64019;BME280;66942;52.138;5.216;2023-04-03T07:07:01;103329.0;;;9.32;48.34
64019;BME280;66942;52.138;5.216;2023-04-03T07:08:37;103333.0;;;9.77;48.37
64019;BME280;66942;52.138;5.216;2023-04-03T07:11:50;103333.0;;;9.4;47.93
64019;BME280;66942;52.138;5.216;2023-04-03T07:13:27;103333.0;;;9.65;47.48
64019;BME280;66942;52.138;5.216;2023-04-03T07:15:04;103333.0;;;9.73;47.57
64019;BME280;66942;52.138;5.216;2023-04-03T07:16:40;103334.99999999999;;;9.63;47.48
64019;BME280;66942;52.138;5.216;2023-04-03T07:19:52;103340.00000000001;;;9.48;46.73
64019;BME280;66942;52.138;5.216;2023-04-03T07:21:29;103340.00000000001;;;9.42;47.05
64019;BME280;66942;52.138;5.216;2023-04-03T07:23:06;103342.0;;;9.56;46.81
64019;BME280;66942;52.138;5.216;2023-04-03T07:26:18;103342.0;;;9.46;46.12
64019;BME280;66942;52.138;5.216;2023-04-03T07:27:55;103342.0;;;10.35;46.24
64019;BME280;66942;52.138;5.216;2023-04-03T07:29:31;103342.0;;;10.27;46.51
64019;BME280;66942;52.138;5.216;2023-04-03T07:32:47;103342.0;;;10.09;45.53
64019;BME280;66942;52.138;5.216;2023-04-03T07:34:23;103345.0;;;10.33;45.63
64019;BME280;66942;52.138;5.216;2023-04-03T07:36:00;103344.0;;;10.16;45.49
64019;BME280;66942;52.138;5.216;2023-04-03T07:37:37;103346.0;;;10.53;44.55
64019;BME280;66942;52.138;5.216;2023-04-03T07:40:50;103334.99999999999;;;10.37;44.02
64019;BME280;66942;52.138;5.216;2023-04-03T07:42:26;103336.99999999999;;;10.75;44.68
64019;BME280;66942;52.138;5.216;2023-04-03T07:44:03;103333.0;;;10.72;42.69
64019;BME280;66942;52.138;5.216;2023-04-03T07:47:18;103334.99999999999;;;10.72;44.48
64019;BME280;66942;52.138;5.216;2023-04-03T07:48:54;103342.0;;;10.93;41.52
64019;BME280;66942;52.138;5.216;2023-04-03T07:50:31;103342.0;;;11.18;41.9
64019;BME280;66942;52.138;5.216;2023-04-03T07:53:43;103336.99999999999;;;11.23;41.77
64019;BME280;66942;52.138;5.216;2023-04-03T07:55:19;103340.00000000001;;;11.43;42.62
64019;BME280;66942;52.138;5.216;2023-04-03T07:56:55;103341.00000000001;;;11.11;42.45
64019;BME280;66942;52.138;5.216;2023-04-03T07:58:31;103338.00000000001;;;10.68;40.87
64019;BME280;66942;52.138;5.216;2023-04-03T08:01:44;103341.00000000001;;;10.96;41.46
64019;BME280;66942;52.138;5.216;2023-04-03T08:03:20;103344.0;;;11.12;41.89
64019;BME280;66942;52.138;5.216;2023-04-03T08:04:57;103350.0;;;10.46;41.53
64019;BME280;66942;52.138;5.216;2023-04-03T08:08:10;103345.0;;;10.92;40.87
64019;BME280;66942;52.138;5.216;2023-04-03T08:09:47;103348.0;;;10.85;41.66
64019;BME280;66942;52.138;5.216;2023-04-03T08:11:23;103352.0;;;10.6;40.42
64019;BME280;66942;52.138;5.216;2023-04-03T08:14:37;103350.0;;;11.23;39.85
64019;BME280;66942;52.138;5.216;2023-04-03T08:16:16;103350.0;;;10.98;38.42
64019;BME280;66942;52.138;5.216;2023-04-03T08:17:54;103355.0;;;11.05;38.44
64019;BME280;66942;52.138;5.216;2023-04-03T08:19:30;103359.99999999999;;;11.59;38.5
64019;BME280;66942;52.138;5.216;2023-04-03T08:22:44;103364.00000000001;;;11.25;38.07
64019;BME280;66942;52.138;5.216;2023-04-03T08:24:21;103364.00000000001;;;11.59;38.31
64019;BME280;66942;52.138;5.216;2023-04-03T08:25:56;103372.0;;;12.02;37.21
64019;BME280;66942;52.138;5.216;2023-04-03T08:29:10;103368.0;;;11.65;35.97
64019;BME280;66942;52.138;5.216;2023-04-03T08:30:46;103376.0;;;12.11;34.85
64019;BME280;66942;52.138;5.216;2023-04-03T08:32:22;103372.0;;;11.96;34.51
64019;BME280;66942;52.138;5.216;2023-04-03T08:35:38;103371.0;;;12.7;35.24
64019;BME280;66942;52.138;5.216;2023-04-03T08:37:14;103376.0;;;12.7;35.56
64019;BME280;66942;52.138;5.216;2023-04-03T08:38:52;103368.0;;;13.06;34.17
64019;BME280;66942;52.138;5.216;2023-04-03T08:40:28;103366.00000000001;;;12.83;33.82
64019;BME280;66942;52.138;5.216;2023-04-03T08:43:58;103367.0;;;13.28;34.25
64019;BME280;66942;52.138;5.216;2023-04-03T08:45:43;103375.0;;;12.92;31.86
64019;BME280;66942;52.138;5.216;2023-04-03T08:47:24;103376.0;;;12.42;31.67
64019;BME280;66942;52.138;5.216;2023-04-03T08:49:06;103373.0;;;12.87;33.15
64019;BME280;66942;52.138;5.216;2023-04-03T08:50:51;103376.0;;;13.08;31.98
64019;BME280;66942;52.138;5.216;2023-04-03T08:54:21;103375.0;;;13.41;33.19
64019;BME280;66942;52.138;5.216;2023-04-03T08:56:03;103376.0;;;12.42;30.58
64019;BME280;66942;52.138;5.216;2023-04-03T08:57:45;103371.0;;;12.5;30.61
64019;BME280;66942;52.138;5.216;2023-04-03T08:59:27;103365.00000000001;;;12.64;31.27
64019;BME280;66942;52.138;5.216;2023-04-03T09:02:54;103364.00000000001;;;12.86;30.38
64019;BME280;66942;52.138;5.216;2023-04-03T09:04:32;103365.00000000001;;;13.37;30.89
64019;BME280;66942;52.138;5.216;2023-04-03T09:06:13;103371.0;;;13.51;30.04
64019;BME280;66942;52.138;5.216;2023-04-03T09:07:57;103369.0;;;13.13;28.69
64019;BME280;66942;52.138;5.216;2023-04-03T09:09:39;103364.00000000001;;;13.13;28.8
64019;BME280;66942;52.138;5.216;2023-04-03T09:13:05;103367.0;;;13.77;29.34
64019;BME280;66942;52.138;5.216;2023-04-03T09:14:52;103361.99999999999;;;14.18;29.93
64019;BME280;66942;52.138;5.216;2023-04-03T09:16:39;103366.00000000001;;;13.81;28.44
64019;BME280;66942;52.138;5.216;2023-04-03T09:18:27;103357.0;;;13.42;28.47
64019;BME280;66942;52.138;5.216;2023-04-03T09:20:16;103358.0;;;14.12;28.52
64019;BME280;66942;52.138;5.216;2023-04-03T09:23:38;103361.99999999999;;;14.36;30.37
64019;BME280;66942;52.138;5.216;2023-04-03T09:25:20;103361.99999999999;;;13.9;28.27
64019;BME280;66942;52.138;5.216;2023-04-03T09:27:00;103358.0;;;14.04;29.34
64019;BME280;66942;52.138;5.216;2023-04-03T09:28:40;103345.0;;;14.38;27.43
64019;BME280;66942;52.138;5.216;2023-04-03T09:31:59;103353.0;;;13.95;26.25
64019;BME280;66942;52.138;5.216;2023-04-03T09:33:36;103355.0;;;13.81;25.46
64019;BME280;66942;52.138;5.216;2023-04-03T09:35:19;103353.0;;;13.51;24.65
64019;BME280;66942;52.138;5.216;2023-04-03T09:36:58;103348.0;;;13.79;23.86
64019;BME280;66942;52.138;5.216;2023-04-03T09:40:45;103341.00000000001;;;13.93;26.71
64019;BME280;66942;52.138;5.216;2023-04-03T09:42:22;103351.0;;;13.8;24.71
64019;BME280;66942;52.138;5.216;2023-04-03T09:43:59;103343.0;;;13.54;23.3
64019;BME280;66942;52.138;5.216;2023-04-03T09:45:35;103344.0;;;14.04;24.92
64019;BME280;66942;52.138;5.216;2023-04-03T09:49:02;103342.0;;;13.73;25.17
64019;BME280;66942;52.138;5.216;2023-04-03T09:50:54;103333.0;;;13.52;23.78
64019;BME280;66942;52.138;5.216;2023-04-03T09:52:33;103333.0;;;13.21;23.29
64019;BME280;66942;52.138;5.216;2023-04-03T09:54:31;103339.00000000001;;;13.96;25.45
64019;BME280;66942;52.138;5.216;2023-04-03T09:56:19;103331.0;;;13.31;22.56
64019;BME280;66942;52.138;5.216;2023-04-03T09:58:00;103333.0;;;13.35;23.81
64019;BME280;66942;52.138;5.216;2023-04-03T10:01:25;103326.0;;;13.55;22.92
64019;BME280;66942;52.138;5.216;2023-04-03T10:03:04;103322.0;;;13.3;23.45
64019;BME280;66942;52.138;5.216;2023-04-03T10:04:41;103318.0;;;13.97;25.84
64019;BME280;66942;52.138;5.216;2023-04-03T10:06:22;103308.99999999999;;;13.68;22.56
64019;BME280;66942;52.138;5.216;2023-04-03T10:10:00;103314.00000000001;;;14.2;24.93
64019;BME280;66942;52.138;5.216;2023-04-03T10:11:57;103303.0;;;14.33;25.75
64019;BME280;66942;52.138;5.216;2023-04-03T10:13:34;103305.0;;;14.67;27.92
64019;BME280;66942;52.138;5.216;2023-04-03T10:15:12;103306.0;;;14.82;25.73
64019;BME280;66942;52.138;5.216;2023-04-03T10:16:53;103314.00000000001;;;14.34;22.68
64019;BME280;66942;52.138;5.216;2023-04-03T10:20:28;103311.99999999999;;;14.37;24.13
64019;BME280;66942;52.138;5.216;2023-04-03T10:22:17;103318.0;;;13.92;21.25
64019;BME280;66942;52.138;5.216;2023-04-03T10:24:02;103299.0;;;13.92;24.33
64019;BME280;66942;52.138;5.216;2023-04-03T10:25:49;103298.0;;;14.18;21.96
64019;BME280;66942;52.138;5.216;2023-04-03T10:27:38;103290.00000000001;;;14.51;23.18
64019;BME280;66942;52.138;5.216;2023-04-03T10:29:27;103283.0;;;14.6;22.06
64019;BME280;66942;52.138;5.216;2023-04-03T10:31:18;103289.00000000001;;;14.66;22.27
64019;BME280;66942;52.138;5.216;2023-04-03T10:34:58;103279.0;;;13.94;20.79
64019;BME280;66942;52.138;5.216;2023-04-03T10:36:42;103278.0;;;13.97;21.34
64019;BME280;66942;52.138;5.216;2023-04-03T10:38:30;103277.0;;;14.24;22.24
64019;BME280;66942;52.138;5.216;2023-04-03T10:40:23;103275.0;;;14.37;24.26
64019;BME280;66942;52.138;5.216;2023-04-03T10:42:10;103276.0;;;14.11;22.13
64019;BME280;66942;52.138;5.216;2023-04-03T10:43:59;103272.0;;;14.48;22.7
64019;BME280;66942;52.138;5.216;2023-04-03T10:47:38;103272.0;;;14.73;22.89
64019;BME280;66942;52.138;5.216;2023-04-03T10:49:30;103259.99999999999;;;15.15;23.7
64019;BME280;66942;52.138;5.216;2023-04-03T10:51:19;103266.00000000001;;;15.16;21.46
64019;BME280;66942;52.138;5.216;2023-04-03T10:53:04;103270.0;;;15.51;20.97
64019;BME280;66942;52.138;5.216;2023-04-03T10:54:48;103276.0;;;15.74;22.59
64019;BME280;66942;52.138;5.216;2023-04-03T10:56:33;103270.0;;;16.31;24.96